Terminal Aerodrome Forecast
Issued by NWS

Current Version | Previous Version | Graphics & Text | Print | Product List | Glossary On
Versions: 1 2 3 4 5 6 7 8 9 10 11 12 13 14 15 16 17 18 19 20 21 22 23 24 25 26 27 28 29 30 31 32 33 34 35 36 37 38 39 40
000
FTUS41 KRNK 292323
TAFLWB
TAF
KLWB 292323Z 3000/3024 15005KT P6SM SCT100
     FM300300 00000KT P6SM SCT035 BKN080
     FM300600 00000KT 2SM BR OVC020
     FM301300 00000KT 5SM BR OVC025
     FM301500 21005KT P6SM SCT025 BKN050
     FM301900 21007KT P6SM SCT050=

USA.gov is the U.S. government's official web portal to all federal, state and local government web resources and services.